Atar, Mauritania
Current Conditions -  °F | °C
As of 12:30 AM on Monday 26 Jan 2015 (Local Time) from GQNN Reporting Station
Clear Clear  
Wind Chill: 68°   Ceiling: Unl
Heat Index: 68°   Visibility: 5mi
Dew Point: 14°   Wind: 9mph
Humidity: 12%   Direction: 70°ENE
Pressure: 29.97"   Gusts: NA
Location:  20.51°N, 13.05°W
Report Text: GQNN 260030Z 07008KT 8000 NSC 20/M10 Q1015 NOSIG
Loading
Personal Weather Stations






























Interactive Weather Map New forecast layout! Learn more

10-Day Weather Forecast

Advertisements
Track Severe Weather on mobile